CMA CGM Volga — 9HA3846 — position and weather

sailwx.info

Track history (hours):
 
Tides and Currents Weather Stations Pressure Air Temp Water Temp Dewpoint Dewpoint Depression Visibility Wind Speed Wind Dir Waves Ship Positions

CMA CGM Volga

Last reported at 2017-Sep-21 09:54 UTC. Time now 2017-Sep-21 10:32 UTC.
Position N 23°05' E 117°35'.

Length 300 m; draft 10.6 m.

Type: Ship (hazmat cat A). MMSI: 256169000.

Date/timePositionNaut miles runAvg speedWind from/ knotsBaromVisibWave heightAir tempDewpointWater temp
2017-Sep-21 09:54N 23°05' E 117°35'817.7
2017-Sep-21 09:27N 22°58' E 117°31'817.8
2017-Sep-21 09:00N 22°51' E 117°27'1217.9
2017-Sep-21 08:21N 22°41' E 117°21'  
2017-Sep-17 21:30N 01°17' E 104°17'1018.1
2017-Sep-17 20:58N 01°15' E 104°07'817.6
2017-Sep-17 20:30N 01°14' E 103°59'918.0
2017-Sep-17 19:59N 01°11' E 103°50'918.8
2017-Sep-17 19:30N 01°05' E 103°43'815.6
2017-Sep-17 19:00N 01°04' E 103°36'918.0
2017-Sep-17 18:30N 01°09' E 103°28'1018.1
2017-Sep-17 17:58N 01°14' E 103°20'  
Track history (hours):
 
Tides and Currents Weather Stations Pressure Air Temp Water Temp Dewpoint Dewpoint Depression Visibility Wind Speed Wind Dir Waves Ship Positions

CMA CGM Volga

Last reported at 2017-Sep-21 09:54 UTC. Time now 2017-Sep-21 10:32 UTC.
Position N 23°05' E 117°35'.

Length 300 m; draft 10.6 m.

Type: Ship (hazmat cat A). MMSI: 256169000.

Date/timePositionNaut miles runAvg speedWind from/ knotsBaromVisibWave heightAir tempDewpointWater temp
2017-Sep-21 09:54N 23°05' E 117°35'817.7
2017-Sep-21 09:27N 22°58' E 117°31'817.8
2017-Sep-21 09:00N 22°51' E 117°27'1217.9
2017-Sep-21 08:21N 22°41' E 117°21'  
2017-Sep-17 21:30N 01°17' E 104°17'1018.1
2017-Sep-17 20:58N 01°15' E 104°07'817.6
2017-Sep-17 20:30N 01°14' E 103°59'918.0
2017-Sep-17 19:59N 01°11' E 103°50'918.8
2017-Sep-17 19:30N 01°05' E 103°43'815.6
2017-Sep-17 19:00N 01°04' E 103°36'918.0
2017-Sep-17 18:30N 01°09' E 103°28'1018.1
2017-Sep-17 17:58N 01°14' E 103°20'  

Dump ship's entire track history